Terminal Aerodrome Forecast
Issued by NWS Northern Indiana

Home | Current Version | Previous Version | Text Only | Print | Product List | Glossary On
Versions: 1 2 3 4 5 6 7 8 9 10 11 12 13 14 15
087
FTUS43 KIWX 290539
TAFFWA
TAF
KFWA 290539Z 2906/3006 04006KT 6SM BR OVC020
      TEMPO 2907/2911 4SM -SHRA BR BKN015 OVC020
     FM291500 05011KT 5SM -SHRA BR OVC015
     FM291900 06012KT 4SM SHRA BR VCTS OVC010CB=

USA.gov is the U.S. government's official web portal to all federal, state and local government web resources and services.